Seven Seas Mariner — C6VV8 — position and weather

sailwx.info

Track history (hours):
 
Tides and Currents Weather Stations Pressure Air Temp Water Temp Dewpoint Dewpoint Depression Visibility Wind Speed Wind Dir Waves Ship Positions

Seven Seas Mariner

Last reported at 2017-Oct-18 01:55 UTC. Time now 2017-Oct-18 09:14 UTC.
Position N 40°25' W 073°32'.

Length 216 m; draft 7.2 m.

Type: Ship. MMSI: 311622000.

Date/timePositionNaut miles runAvg speedWind from/ knotsBaromVisibWave heightAir tempDewpointWater temp
2017-Oct-18 01:55N 40°25' W 073°32'818.1
2017-Oct-18 01:30N 40°26' W 073°42'714.2
2017-Oct-18 01:00N 40°28' W 073°51'714.5
2017-Oct-18 00:30N 40°31' W 073°59'815.8
2017-Oct-18 00:00N 40°38' W 074°03'510.4
2017-Oct-17 23:30N 40°43' W 074°01'3 6.1
2017-Oct-17 23:00N 40°46' W 073°60'0 0.0
2017-Oct-17 22:30N 40°46' W 073°60'0 0.0
2017-Oct-17 22:00N 40°46' W 073°60'0 0.0
2017-Oct-17 21:30N 40°46' W 073°60'0 0.0
2017-Oct-17 21:00N 40°46' W 073°60'0 0.0
2017-Oct-17 20:30N 40°46' W 073°60'0 0.0
2017-Oct-17 20:00N 40°46' W 073°60'0 0.0
2017-Oct-17 19:30N 40°46' W 073°60'0 0.0
2017-Oct-17 19:00N 40°46' W 073°60'0 0.0
2017-Oct-17 18:30N 40°46' W 073°60'0 0.0
2017-Oct-17 18:00N 40°46' W 073°60'0 0.0
2017-Oct-17 17:30N 40°46' W 073°60'0 0.0
2017-Oct-17 17:00N 40°46' W 073°60'0 0.0
2017-Oct-17 16:30N 40°46' W 073°60'0 0.0
2017-Oct-17 16:00N 40°46' W 073°60'0 0.0
2017-Oct-17 15:30N 40°46' W 073°60'0 0.0
2017-Oct-17 15:00N 40°46' W 073°60'0 0.0
2017-Oct-17 14:30N 40°46' W 073°60'0 0.0
2017-Oct-17 14:00N 40°46' W 073°60'0 0.0
2017-Oct-17 13:30N 40°46' W 073°60'0 0.0
2017-Oct-17 13:00N 40°46' W 073°60'0 0.0
2017-Oct-17 12:30N 40°46' W 073°60'0 0.0
2017-Oct-17 12:00N 40°46' W 073°60'0 0.0
2017-Oct-17 11:30N 40°46' W 073°60'0 0.0
2017-Oct-17 11:00N 40°46' W 073°60'0 0.0
2017-Oct-17 10:30N 40°46' W 073°60'1 1.5
2017-Oct-17 10:00N 40°46' W 074°01'2 4.4
2017-Oct-17 09:30N 40°44' W 074°01'611.8
2017-Oct-17 09:00N 40°38' W 074°03'714.0
2017-Oct-17 08:30N 40°31' W 073°60'815.1
2017-Oct-17 08:00N 40°28' W 073°51'811.0
2017-Oct-17 07:19N 40°27' W 073°41'12311.7
2017-Oct-16 20:47N 41°29' W 071°20'0 0.2
2017-Oct-16 20:14N 41°29' W 071°20'0 0.0
2017-Oct-16 19:45N 41°29' W 071°20'0 0.0
2017-Oct-16 19:23N 41°29' W 071°20'0 0.0
2017-Oct-16 18:55N 41°29' W 071°20'0 0.0
2017-Oct-16 18:30N 41°29' W 071°20'0 0.0
2017-Oct-16 17:48N 41°29' W 071°20'0 0.0
2017-Oct-16 17:30N 41°29' W 071°20'0 0.1
2017-Oct-16 17:00N 41°29' W 071°20'0 0.1
2017-Oct-16 16:30N 41°29' W 071°20'0 0.0
2017-Oct-16 15:51N 41°29' W 071°20'75 4.4
2017-Oct-15 23:02N 42°17' W 070°03'118.4
2017-Oct-15 23:00N 42°17' W 070°04'918.3
2017-Oct-15 22:30N 42°18' W 070°16'918.7
2017-Oct-15 22:00N 42°19' W 070°28'816.8
2017-Oct-15 21:30N 42°20' W 070°40'612.6
2017-Oct-15 21:00N 42°24' W 070°47'611.5
2017-Oct-15 20:31N 42°22' W 070°54'510.1
2017-Oct-15 20:00N 42°20' W 071°00'1 1.8
2017-Oct-15 19:30N 42°21' W 071°02'0 0.0
2017-Oct-15 19:00N 42°21' W 071°02'0 0.0
2017-Oct-15 18:30N 42°21' W 071°02'0 0.0
2017-Oct-15 18:00N 42°21' W 071°02'0 0.0
2017-Oct-15 17:30N 42°21' W 071°02'0 0.0
2017-Oct-15 17:00N 42°21' W 071°02'0 0.0
2017-Oct-15 16:30N 42°21' W 071°02'0 0.0
2017-Oct-15 16:00N 42°21' W 071°02'0 0.0
2017-Oct-15 15:30N 42°21' W 071°02'0 0.0
2017-Oct-15 15:00N 42°21' W 071°02'0 0.0
2017-Oct-15 14:00N 42°21' W 071°02'0 0.0
2017-Oct-15 13:30N 42°21' W 071°02'0 0.0
2017-Oct-15 13:00N 42°21' W 071°02'0 0.0
2017-Oct-15 12:30N 42°21' W 071°02'0 0.0
2017-Oct-15 12:00N 42°21' W 071°02'0 0.0
2017-Oct-15 11:30N 42°21' W 071°02'1 1.3
2017-Oct-15 11:00N 42°21' W 071°01'2 4.7
2017-Oct-15 10:30N 42°20' W 070°58'611.2
2017-Oct-15 10:01N 42°24' W 070°52'4 7.8
2017-Oct-15 09:30N 42°24' W 070°46'612.1
2017-Oct-15 09:00N 42°25' W 070°39'713.0
2017-Oct-15 08:30N 42°29' W 070°31'713.8
2017-Oct-15 08:01N 42°34' W 070°25'816.0
2017-Oct-15 07:30N 42°39' W 070°16'816.2
2017-Oct-15 07:00N 42°45' W 070°09'816.0
2017-Oct-15 06:31N 42°51' W 070°01'2015.6
2017-Oct-15 05:13N 43°02' W 069°39'1715.7
2017-Oct-15 04:08N 43°15' W 069°23'615.9
2017-Oct-15 03:47N 43°19' W 069°18'715.8
2017-Oct-15 03:22N 43°23' W 069°11'716.3
2017-Oct-15 02:58N 43°28' W 069°04'715.7
2017-Oct-15 02:30N 43°33' W 068°57'815.9
2017-Oct-15 01:59N 43°38' W 068°48'916.2
2017-Oct-15 01:26N 43°43' W 068°38'716.1
2017-Oct-15 00:59N 43°48' W 068°31'  
Track history (hours):
 
Tides and Currents Weather Stations Pressure Air Temp Water Temp Dewpoint Dewpoint Depression Visibility Wind Speed Wind Dir Waves Ship Positions

Seven Seas Mariner

Last reported at 2017-Oct-18 01:55 UTC. Time now 2017-Oct-18 09:14 UTC.
Position N 40°25' W 073°32'.

Length 216 m; draft 7.2 m.

Type: Ship. MMSI: 311622000.

Date/timePositionNaut miles runAvg speedWind from/ knotsBaromVisibWave heightAir tempDewpointWater temp
2017-Oct-18 01:55N 40°25' W 073°32'818.1
2017-Oct-18 01:30N 40°26' W 073°42'714.2
2017-Oct-18 01:00N 40°28' W 073°51'714.5
2017-Oct-18 00:30N 40°31' W 073°59'815.8
2017-Oct-18 00:00N 40°38' W 074°03'510.4
2017-Oct-17 23:30N 40°43' W 074°01'3 6.1
2017-Oct-17 23:00N 40°46' W 073°60'0 0.0
2017-Oct-17 22:30N 40°46' W 073°60'0 0.0
2017-Oct-17 22:00N 40°46' W 073°60'0 0.0
2017-Oct-17 21:30N 40°46' W 073°60'0 0.0
2017-Oct-17 21:00N 40°46' W 073°60'0 0.0
2017-Oct-17 20:30N 40°46' W 073°60'0 0.0
2017-Oct-17 20:00N 40°46' W 073°60'0 0.0
2017-Oct-17 19:30N 40°46' W 073°60'0 0.0
2017-Oct-17 19:00N 40°46' W 073°60'0 0.0
2017-Oct-17 18:30N 40°46' W 073°60'0 0.0
2017-Oct-17 18:00N 40°46' W 073°60'0 0.0
2017-Oct-17 17:30N 40°46' W 073°60'0 0.0
2017-Oct-17 17:00N 40°46' W 073°60'0 0.0
2017-Oct-17 16:30N 40°46' W 073°60'0 0.0
2017-Oct-17 16:00N 40°46' W 073°60'0 0.0
2017-Oct-17 15:30N 40°46' W 073°60'0 0.0
2017-Oct-17 15:00N 40°46' W 073°60'0 0.0
2017-Oct-17 14:30N 40°46' W 073°60'0 0.0
2017-Oct-17 14:00N 40°46' W 073°60'0 0.0
2017-Oct-17 13:30N 40°46' W 073°60'0 0.0
2017-Oct-17 13:00N 40°46' W 073°60'0 0.0
2017-Oct-17 12:30N 40°46' W 073°60'0 0.0
2017-Oct-17 12:00N 40°46' W 073°60'0 0.0
2017-Oct-17 11:30N 40°46' W 073°60'0 0.0
2017-Oct-17 11:00N 40°46' W 073°60'0 0.0
2017-Oct-17 10:30N 40°46' W 073°60'1 1.5
2017-Oct-17 10:00N 40°46' W 074°01'2 4.4
2017-Oct-17 09:30N 40°44' W 074°01'611.8
2017-Oct-17 09:00N 40°38' W 074°03'714.0
2017-Oct-17 08:30N 40°31' W 073°60'815.1
2017-Oct-17 08:00N 40°28' W 073°51'811.0
2017-Oct-17 07:19N 40°27' W 073°41'12311.7
2017-Oct-16 20:47N 41°29' W 071°20'0 0.2
2017-Oct-16 20:14N 41°29' W 071°20'0 0.0
2017-Oct-16 19:45N 41°29' W 071°20'0 0.0
2017-Oct-16 19:23N 41°29' W 071°20'0 0.0
2017-Oct-16 18:55N 41°29' W 071°20'0 0.0
2017-Oct-16 18:30N 41°29' W 071°20'0 0.0
2017-Oct-16 17:48N 41°29' W 071°20'0 0.0
2017-Oct-16 17:30N 41°29' W 071°20'0 0.1
2017-Oct-16 17:00N 41°29' W 071°20'0 0.1
2017-Oct-16 16:30N 41°29' W 071°20'0 0.0
2017-Oct-16 15:51N 41°29' W 071°20'75 4.4
2017-Oct-15 23:02N 42°17' W 070°03'118.4
2017-Oct-15 23:00N 42°17' W 070°04'918.3
2017-Oct-15 22:30N 42°18' W 070°16'918.7
2017-Oct-15 22:00N 42°19' W 070°28'816.8
2017-Oct-15 21:30N 42°20' W 070°40'612.6
2017-Oct-15 21:00N 42°24' W 070°47'611.5
2017-Oct-15 20:31N 42°22' W 070°54'510.1
2017-Oct-15 20:00N 42°20' W 071°00'1 1.8
2017-Oct-15 19:30N 42°21' W 071°02'0 0.0
2017-Oct-15 19:00N 42°21' W 071°02'0 0.0
2017-Oct-15 18:30N 42°21' W 071°02'0 0.0
2017-Oct-15 18:00N 42°21' W 071°02'0 0.0
2017-Oct-15 17:30N 42°21' W 071°02'0 0.0
2017-Oct-15 17:00N 42°21' W 071°02'0 0.0
2017-Oct-15 16:30N 42°21' W 071°02'0 0.0
2017-Oct-15 16:00N 42°21' W 071°02'0 0.0
2017-Oct-15 15:30N 42°21' W 071°02'0 0.0
2017-Oct-15 15:00N 42°21' W 071°02'0 0.0
2017-Oct-15 14:00N 42°21' W 071°02'0 0.0
2017-Oct-15 13:30N 42°21' W 071°02'0 0.0
2017-Oct-15 13:00N 42°21' W 071°02'0 0.0
2017-Oct-15 12:30N 42°21' W 071°02'0 0.0
2017-Oct-15 12:00N 42°21' W 071°02'0 0.0
2017-Oct-15 11:30N 42°21' W 071°02'1 1.3
2017-Oct-15 11:00N 42°21' W 071°01'2 4.7
2017-Oct-15 10:30N 42°20' W 070°58'611.2
2017-Oct-15 10:01N 42°24' W 070°52'4 7.8
2017-Oct-15 09:30N 42°24' W 070°46'612.1
2017-Oct-15 09:00N 42°25' W 070°39'713.0
2017-Oct-15 08:30N 42°29' W 070°31'713.8
2017-Oct-15 08:01N 42°34' W 070°25'816.0
2017-Oct-15 07:30N 42°39' W 070°16'816.2
2017-Oct-15 07:00N 42°45' W 070°09'816.0
2017-Oct-15 06:31N 42°51' W 070°01'2015.6
2017-Oct-15 05:13N 43°02' W 069°39'1715.7
2017-Oct-15 04:08N 43°15' W 069°23'615.9
2017-Oct-15 03:47N 43°19' W 069°18'715.8
2017-Oct-15 03:22N 43°23' W 069°11'716.3
2017-Oct-15 02:58N 43°28' W 069°04'715.7
2017-Oct-15 02:30N 43°33' W 068°57'815.9
2017-Oct-15 01:59N 43°38' W 068°48'916.2
2017-Oct-15 01:26N 43°43' W 068°38'716.1
2017-Oct-15 00:59N 43°48' W 068°31'  

Dump ship's entire track history